Linden, Virginia
Current Conditions -  °F | °C
As of 6:55 AM on Sunday 25 Jan 2015 (Local Time) from KFRR Reporting Station
Overcast Overcast  
Wind Chill: 34°   Ceiling: 4100
Heat Index: 37°   Visibility: 10mi
Dew Point: 28°   Wind: 5mph
Humidity: 70%   Direction: 210°SSW
Pressure: 29.78"   Gusts: NA
Location:  38.91°N, 78.08°W
Report Text: KFRR 251155Z AUTO 21004KT 10SM OVC041 03/M02 A2978 RMK AO1
Loading
Personal Weather Stations






























Interactive Weather Map New forecast layout! Learn more

10-Day Weather Forecast

Advertisements
Track Severe Weather on mobile